createdAt,value
2023-01-05T00:01:34.411Z,0.50
2023-01-05T00:04:37.248Z,0.40
2023-01-05T00:07:41.310Z,0.30
2023-01-05T00:11:01.643Z,0.57
2023-01-05T00:14:22.322Z,0.40
2023-01-05T00:17:43.966Z,0.30
2023-01-05T00:21:04.093Z,0.30
2023-01-05T00:24:08.706Z,0.30
2023-01-05T00:27:14.657Z,0.30
2023-01-05T00:30:19.398Z,0.20
2023-01-05T00:33:22.064Z,0.20
2023-01-05T00:36:24.859Z,0.30
2023-01-05T00:39:28.907Z,0.30
2023-01-05T00:42:31.764Z,0.40
2023-01-05T00:45:34.502Z,0.30
2023-01-05T00:48:37.403Z,0.23
2023-01-05T00:51:40.187Z,0.40
2023-01-05T00:54:44.234Z,0.20
2023-01-05T00:57:47.032Z,0.37
2023-01-05T01:00:49.826Z,0.20
2023-01-05T01:03:52.766Z,0.30
2023-01-05T01:06:55.627Z,0.20
2023-01-05T01:09:59.715Z,0.23
2023-01-05T01:13:02.469Z,0.30
2023-01-05T01:16:08.778Z,0.30
2023-01-05T01:19:15.480Z,0.30
2023-01-05T01:22:18.420Z,0.30
2023-01-05T01:25:22.607Z,0.20
2023-01-05T01:28:25.513Z,0.30
2023-01-05T01:31:28.327Z,0.30
2023-01-05T01:34:31.326Z,0.30
2023-01-05T01:37:34.051Z,0.40
2023-01-05T01:40:41.481Z,0.30
2023-01-05T01:43:46.884Z,0.40
2023-01-05T01:46:49.665Z,0.30
2023-01-05T01:49:52.783Z,0.30
2023-01-05T01:52:59.718Z,0.30
2023-01-05T01:56:06.071Z,0.30
2023-01-05T01:59:09.632Z,0.30
2023-01-05T02:02:13.967Z,0.30
2023-01-05T02:05:19.199Z,0.20
2023-01-05T02:08:25.715Z,0.40
2023-01-05T02:11:44.207Z,0.23
2023-01-05T02:14:54.524Z,0.20
2023-01-05T02:18:10.711Z,0.30
2023-01-05T02:21:26.123Z,0.30
2023-01-05T02:24:46.244Z,0.37
2023-01-05T02:28:00.693Z,0.40
2023-01-05T02:31:15.961Z,0.37
2023-01-05T02:34:24.310Z,0.40
2023-01-05T02:37:33.831Z,0.37
2023-01-05T02:40:43.224Z,0.40
2023-01-05T02:43:46.477Z,0.27
2023-01-05T02:47:00.598Z,0.20
2023-01-05T02:50:07.917Z,0.27
2023-01-05T02:53:18.050Z,0.20
2023-01-05T02:56:25.285Z,0.30
2023-01-05T02:59:32.161Z,0.30
2023-01-05T03:02:36.904Z,0.40
2023-01-05T03:05:46.950Z,0.37
2023-01-05T03:08:53.460Z,0.30
2023-01-05T03:12:20.542Z,0.30
2023-01-05T03:15:27.852Z,0.20
2023-01-05T03:18:34.054Z,0.27
2023-01-05T03:21:55.259Z,0.33
2023-01-05T03:25:16.013Z,0.20
2023-01-05T03:28:39.777Z,0.50
2023-01-05T03:32:06.594Z,0.50
2023-01-05T03:35:32.968Z,0.40
2023-01-05T03:38:39.736Z,0.47
2023-01-05T03:41:42.819Z,0.47
2023-01-05T03:44:46.893Z,0.40
2023-01-05T03:47:51.082Z,0.40
2023-01-05T03:50:55.500Z,0.50
2023-01-05T03:53:58.488Z,0.40
2023-01-05T03:57:01.760Z,0.67
2023-01-05T04:00:05.822Z,0.80
2023-01-05T04:03:09.585Z,0.90
2023-01-05T04:06:13.942Z,0.97
2023-01-05T04:09:16.689Z,0.93
2023-01-05T04:12:19.503Z,1.30
2023-01-05T04:15:22.229Z,1.60
2023-01-05T04:18:24.983Z,1.00
2023-01-05T04:21:29.055Z,1.20
2023-01-05T04:24:31.772Z,1.23
2023-01-05T04:27:34.510Z,1.07
2023-01-05T04:30:37.212Z,1.40
2023-01-05T04:33:41.423Z,1.50
2023-01-05T04:36:47.961Z,0.80
2023-01-05T04:39:50.837Z,1.50
2023-01-05T04:42:53.574Z,1.30
2023-01-05T04:45:56.410Z,1.40
2023-01-05T04:48:59.135Z,1.50
2023-01-05T04:52:03.442Z,0.63
2023-01-05T04:55:08.422Z,1.70
2023-01-05T04:58:12.155Z,1.67
2023-01-05T05:01:15.330Z,1.40
2023-01-05T05:04:18.193Z,1.30
2023-01-05T05:07:22.321Z,1.67
2023-01-05T05:10:25.434Z,1.57
2023-01-05T05:13:28.287Z,1.00
2023-01-05T05:16:31.107Z,1.60
2023-01-05T05:19:34.549Z,2.20
2023-01-05T05:22:38.627Z,1.80
2023-01-05T05:25:41.353Z,1.67
2023-01-05T05:28:44.151Z,1.57
2023-01-05T05:31:46.982Z,1.97
2023-01-05T05:34:49.711Z,1.50
2023-01-05T05:37:56.630Z,2.13
2023-01-05T05:40:59.708Z,1.63
2023-01-05T05:44:02.919Z,1.73
2023-01-05T05:47:06.141Z,2.33
2023-01-05T05:50:10.505Z,2.07
2023-01-05T05:53:14.858Z,1.60
2023-01-05T05:56:17.666Z,1.77
2023-01-05T05:59:20.522Z,2.23
2023-01-05T06:02:23.398Z,2.20
2023-01-05T06:05:26.183Z,1.77
2023-01-05T06:08:30.470Z,2.30
2023-01-05T06:11:33.237Z,1.80
2023-01-05T06:14:36.217Z,1.70
2023-01-05T06:17:39.093Z,2.07
2023-01-05T06:20:42.318Z,1.90
2023-01-05T06:23:46.394Z,1.60
2023-01-05T06:26:49.465Z,1.57
2023-01-05T06:29:52.219Z,2.17
2023-01-05T06:32:55.356Z,2.20
2023-01-05T06:35:58.765Z,1.70
2023-01-05T06:39:02.902Z,1.73
2023-01-05T06:42:05.793Z,1.60
2023-01-05T06:45:10.828Z,2.20
2023-01-05T06:48:14.481Z,1.47
2023-01-05T06:51:18.528Z,1.80
2023-01-05T06:54:22.595Z,1.60
2023-01-05T06:57:25.513Z,1.77
2023-01-05T07:00:29.005Z,1.70
2023-01-05T07:03:31.875Z,1.70
2023-01-05T07:06:35.937Z,1.87
2023-01-05T07:09:40.510Z,2.10
2023-01-05T07:12:43.240Z,1.50
2023-01-05T07:15:46.519Z,1.57
2023-01-05T07:18:49.254Z,2.27
2023-01-05T07:21:56.743Z,1.80
2023-01-05T07:25:01.212Z,1.60
2023-01-05T07:28:04.254Z,1.37
2023-01-05T07:31:08.383Z,1.60
2023-01-05T07:34:11.370Z,2.10
2023-01-05T07:37:14.416Z,1.70
2023-01-05T07:40:18.589Z,1.43
2023-01-05T07:43:21.691Z,1.90
2023-01-05T07:46:24.517Z,1.53
2023-01-05T07:49:27.360Z,1.80
2023-01-05T07:52:32.523Z,1.77
2023-01-05T07:55:37.539Z,1.83
2023-01-05T07:58:41.724Z,1.57
2023-01-05T08:01:44.974Z,1.80
2023-01-05T08:04:48.050Z,1.80
2023-01-05T08:07:51.187Z,2.10
2023-01-05T08:10:55.311Z,1.10
2023-01-05T08:14:00.721Z,1.80
2023-01-05T08:17:03.568Z,1.60
2023-01-05T08:20:07.764Z,1.33
2023-01-05T08:23:10.523Z,1.40
2023-01-05T08:26:17.624Z,1.43
2023-01-05T08:29:20.395Z,1.87
2023-01-05T08:32:23.110Z,1.67
2023-01-05T08:35:25.833Z,2.00
2023-01-05T08:38:28.823Z,2.00
2023-01-05T08:41:35.803Z,1.53
2023-01-05T08:44:38.559Z,1.70
2023-01-05T08:47:41.311Z,1.33
2023-01-05T08:50:44.155Z,1.47
2023-01-05T08:53:47.421Z,1.90
2023-01-05T08:56:52.820Z,1.87
2023-01-05T08:59:55.622Z,1.50
2023-01-05T09:02:58.407Z,2.10
2023-01-05T09:06:03.419Z,1.60
2023-01-05T09:09:06.392Z,1.83
2023-01-05T09:12:10.463Z,2.13
2023-01-05T09:15:13.179Z,1.67
2023-01-05T09:18:15.897Z,1.73
2023-01-05T09:21:18.926Z,1.53
2023-01-05T09:24:21.682Z,1.80
2023-01-05T09:27:25.709Z,1.80
2023-01-05T09:30:28.481Z,1.40
2023-01-05T09:33:31.779Z,2.13
2023-01-05T09:36:34.694Z,1.80
2023-01-05T09:39:37.602Z,2.17
2023-01-05T09:42:46.287Z,1.73
2023-01-05T09:45:50.237Z,1.97
2023-01-05T09:48:56.534Z,2.10
2023-01-05T09:52:01.927Z,1.73
2023-01-05T09:55:11.688Z,1.50
2023-01-05T09:58:23.564Z,1.80
2023-01-05T10:01:34.335Z,2.77
2023-01-05T10:04:37.341Z,2.10
2023-01-05T10:07:45.480Z,1.80
2023-01-05T10:11:06.640Z,2.03
2023-01-05T10:14:15.928Z,2.23
2023-01-05T10:20:55.663Z,1.47
2023-01-05T10:24:14.716Z,1.70
2023-01-05T10:27:26.195Z,1.60
2023-01-05T10:30:49.556Z,2.27
2023-01-05T10:33:59.024Z,1.80
2023-01-05T10:37:21.324Z,1.63
2023-01-05T10:40:33.404Z,2.23
2023-01-05T10:43:51.180Z,2.50
2023-01-05T10:46:55.454Z,2.20
2023-01-05T10:49:59.225Z,2.47
2023-01-05T10:53:09.829Z,1.87
2023-01-05T10:56:16.596Z,2.00
2023-01-05T10:59:19.408Z,2.10
2023-01-05T11:02:24.703Z,1.90
2023-01-05T11:05:31.772Z,2.20
2023-01-05T11:08:35.742Z,2.00
2023-01-05T11:11:38.568Z,2.10
2023-01-05T11:14:44.548Z,1.70
2023-01-05T11:17:49.067Z,2.40
2023-01-05T11:21:13.492Z,2.33
2023-01-05T11:24:31.401Z,2.20
2023-01-05T11:27:34.310Z,2.00
2023-01-05T11:30:37.721Z,2.10
2023-01-05T11:33:41.973Z,1.83
2023-01-05T11:36:51.636Z,2.33
2023-01-05T11:39:56.686Z,2.90
2023-01-05T11:43:00.998Z,2.60
2023-01-05T11:46:05.885Z,2.50
2023-01-05T11:49:10.630Z,1.40
2023-01-05T11:52:27.347Z,2.20
2023-01-05T11:55:33.878Z,2.90
2023-01-05T11:58:43.999Z,2.13
2023-01-05T12:02:03.145Z,2.50
2023-01-05T12:05:24.586Z,2.03
2023-01-05T12:08:32.024Z,1.90
2023-01-05T12:11:45.077Z,1.67
2023-01-05T12:15:16.823Z,2.00
2023-01-05T12:18:34.543Z,2.07
2023-01-05T12:21:40.837Z,1.03
2023-01-05T12:24:58.334Z,2.17
2023-01-05T12:28:40.575Z,2.10
2023-01-05T12:35:58.657Z,2.20
2023-01-05T12:39:19.232Z,2.47
2023-01-05T12:42:37.720Z,2.13
2023-01-05T12:46:08.961Z,2.43
2023-01-05T12:49:17.037Z,2.13
2023-01-05T12:52:29.068Z,1.90
2023-01-05T12:55:39.902Z,2.23
2023-01-05T12:58:53.933Z,2.13
2023-01-05T13:02:04.839Z,2.17
2023-01-05T13:05:18.374Z,2.63
2023-01-05T13:08:25.627Z,2.20
2023-01-05T13:11:35.771Z,2.50
2023-01-05T13:14:52.795Z,2.00
2023-01-05T13:17:59.960Z,2.23
2023-01-05T13:21:12.688Z,2.13
2023-01-05T13:24:23.118Z,2.53
2023-01-05T13:27:29.286Z,2.40
2023-01-05T13:30:36.959Z,2.37
2023-01-05T13:34:12.270Z,2.07
2023-01-05T13:37:40.275Z,2.30
2023-01-05T13:41:00.906Z,2.10
2023-01-05T13:44:21.816Z,1.97
2023-01-05T13:47:53.896Z,2.03
2023-01-05T13:51:23.608Z,2.23
2023-01-05T13:54:49.309Z,2.07
2023-01-05T13:57:57.690Z,2.10
2023-01-05T14:01:04.738Z,2.70
2023-01-05T14:04:18.803Z,2.40
2023-01-05T14:07:21.884Z,2.20
2023-01-05T14:10:27.366Z,2.17
2023-01-05T14:13:45.854Z,2.03
2023-01-05T14:16:57.329Z,2.73
2023-01-05T14:20:00.336Z,2.10
2023-01-05T14:23:22.399Z,2.00
2023-01-05T14:27:00.818Z,2.20
2023-01-05T14:30:04.131Z,1.83
2023-01-05T14:33:22.528Z,2.37
2023-01-05T14:36:42.968Z,1.80
2023-01-05T14:40:08.671Z,1.97
2023-01-05T14:43:39.978Z,2.00
2023-01-05T14:46:48.739Z,2.00
2023-01-05T14:50:03.765Z,2.00
2023-01-05T14:53:14.770Z,2.13
2023-01-05T14:56:22.833Z,1.77
2023-01-05T14:59:27.735Z,1.70
2023-01-05T15:02:34.187Z,2.50
2023-01-05T15:05:41.580Z,2.30
2023-01-05T15:09:15.864Z,2.10
2023-01-05T15:12:36.304Z,1.97
2023-01-05T15:15:50.137Z,2.00
2023-01-05T15:19:18.061Z,2.00
2023-01-05T15:22:39.048Z,1.70
2023-01-05T15:26:07.589Z,2.17
2023-01-05T15:29:40.803Z,1.93
2023-01-05T15:32:46.297Z,2.63
2023-01-05T15:35:53.907Z,2.77
2023-01-05T15:38:57.958Z,9.83
2023-01-05T15:42:07.998Z,2.63
2023-01-05T15:45:18.477Z,2.17
2023-01-05T15:48:29.268Z,2.40
2023-01-05T15:51:33.822Z,2.63
2023-01-05T15:54:37.880Z,4.30
2023-01-05T15:57:41.096Z,3.43
2023-01-05T16:00:43.903Z,2.30
2023-01-05T16:03:48.651Z,2.80
2023-01-05T16:06:57.305Z,3.10
2023-01-05T16:10:02.088Z,5.07
2023-01-05T16:13:10.577Z,7.20
2023-01-05T16:16:49.633Z,4.33
2023-01-05T16:19:46.033Z,3.50
2023-01-05T16:23:08.307Z,2.90
2023-01-05T16:26:17.893Z,6.60
2023-01-05T16:29:39.214Z,3.03
2023-01-05T16:32:42.868Z,2.90
2023-01-05T16:35:47.337Z,3.13
2023-01-05T16:38:57.900Z,3.57
2023-01-05T16:42:29.825Z,3.37
2023-01-05T16:45:34.532Z,2.97
2023-01-05T16:48:49.884Z,3.30
2023-01-05T16:51:54.910Z,3.17
2023-01-05T16:55:30.056Z,7.30
2023-01-05T16:58:38.806Z,2.63
2023-01-05T17:01:46.080Z,3.63
2023-01-05T17:04:48.839Z,3.77
2023-01-05T17:08:04.593Z,3.43
2023-01-05T17:11:12.358Z,3.03
2023-01-05T17:14:18.043Z,2.60
2023-01-05T17:17:21.341Z,2.93
2023-01-05T17:20:26.588Z,3.17
2023-01-05T17:23:31.203Z,3.37
2023-01-05T17:26:43.577Z,3.80
2023-01-05T17:29:50.581Z,3.40
2023-01-05T17:32:53.294Z,3.70
2023-01-05T17:35:56.974Z,3.63
2023-01-05T17:38:59.866Z,3.10
2023-01-05T17:42:21.323Z,3.23
2023-01-05T17:45:27.958Z,4.00
2023-01-05T17:48:32.839Z,2.70
2023-01-05T17:51:37.397Z,3.53
2023-01-05T17:54:41.730Z,2.63
2023-01-05T17:57:44.483Z,3.30
2023-01-05T18:00:49.983Z,3.73
2023-01-05T18:03:52.966Z,5.53
2023-01-05T18:06:55.893Z,6.60
2023-01-05T18:10:01.836Z,5.00
2023-01-05T18:13:04.800Z,4.77
2023-01-05T18:16:10.521Z,5.40
2023-01-05T18:22:21.977Z,5.67
2023-01-05T18:25:24.853Z,4.27
2023-01-05T18:28:29.013Z,4.30
2023-01-05T18:31:34.885Z,4.00
2023-01-05T18:34:42.397Z,3.60
2023-01-05T18:37:45.158Z,4.03
2023-01-05T18:40:49.982Z,3.40
2023-01-05T18:43:52.810Z,3.40
2023-01-05T18:46:57.785Z,3.53
2023-01-05T18:50:00.580Z,4.43
2023-01-05T18:53:03.528Z,3.10
2023-01-05T18:56:10.738Z,2.90
2023-01-05T18:59:15.638Z,3.00
2023-01-05T19:02:19.838Z,2.87
2023-01-05T19:05:22.735Z,2.90
2023-01-05T19:08:26.616Z,5.10
2023-01-05T19:11:33.033Z,2.73
2023-01-05T19:14:37.028Z,3.23
2023-01-05T19:17:43.996Z,2.30
2023-01-05T19:20:59.047Z,2.97
2023-01-05T19:24:04.071Z,5.00
2023-01-05T19:27:06.819Z,2.57
2023-01-05T19:30:10.406Z,3.03
2023-01-05T19:33:14.453Z,3.53
2023-01-05T19:36:18.854Z,5.33
2023-01-05T19:39:21.973Z,4.60
2023-01-05T19:42:24.680Z,2.67
2023-01-05T19:45:27.421Z,2.40
2023-01-05T19:48:35.225Z,2.80
2023-01-05T19:51:37.881Z,3.10
2023-01-05T19:54:40.641Z,3.20
2023-01-05T19:57:43.343Z,2.53
2023-01-05T20:00:46.490Z,2.60
2023-01-05T20:03:51.580Z,2.10
2023-01-05T20:06:54.265Z,2.50
2023-01-05T20:09:58.229Z,2.23
2023-01-05T20:13:05.056Z,2.10
2023-01-05T20:16:13.704Z,2.17
2023-01-05T20:19:18.852Z,3.40
2023-01-05T20:22:21.677Z,1.90
2023-01-05T20:25:24.359Z,2.03
2023-01-05T20:28:27.095Z,3.00
2023-01-05T20:31:32.204Z,4.13
2023-01-05T20:34:39.086Z,1.80
2023-01-05T20:37:47.920Z,3.03
2023-01-05T20:40:50.655Z,1.87
2023-01-05T20:43:54.304Z,1.87
2023-01-05T20:46:57.125Z,1.97
2023-01-05T20:50:03.898Z,2.87
2023-01-05T20:53:06.632Z,2.00
2023-01-05T20:56:12.545Z,1.67
2023-01-05T20:59:18.969Z,1.73
2023-01-05T21:02:24.639Z,1.70
2023-01-05T21:05:29.135Z,1.70
2023-01-05T21:08:32.076Z,1.83
2023-01-05T21:11:36.719Z,1.73
2023-01-05T21:14:39.641Z,2.20
2023-01-05T21:17:43.226Z,4.10
2023-01-05T21:20:47.404Z,3.50
2023-01-05T21:23:52.939Z,4.17
2023-01-05T21:27:01.894Z,4.07
2023-01-05T21:30:08.134Z,3.57
2023-01-05T21:33:11.996Z,2.73
2023-01-05T21:36:17.932Z,1.87
2023-01-05T21:39:29.936Z,1.90
2023-01-05T21:42:42.555Z,1.20
2023-01-05T21:45:46.171Z,1.60
2023-01-05T21:48:48.855Z,1.90
2023-01-05T21:52:12.435Z,2.57
2023-01-05T21:55:32.591Z,4.00
2023-01-05T21:58:36.189Z,3.30
2023-01-05T22:01:39.821Z,4.90
2023-01-05T22:04:42.858Z,1.83
2023-01-05T22:07:46.871Z,2.43
2023-01-05T22:10:55.774Z,1.60
2023-01-05T22:13:58.508Z,1.73
2023-01-05T22:17:05.566Z,2.07
2023-01-05T22:20:09.462Z,4.27
2023-01-05T22:23:14.508Z,2.20
2023-01-05T22:26:21.544Z,6.00
2023-01-05T22:29:24.414Z,5.43
2023-01-05T22:32:27.159Z,3.03
2023-01-05T22:35:30.115Z,5.07
2023-01-05T22:38:35.843Z,1.90
2023-01-05T22:41:38.602Z,2.03
2023-01-05T22:44:41.747Z,3.00
2023-01-05T22:47:44.471Z,1.27
2023-01-05T22:50:47.794Z,1.43
2023-01-05T22:53:52.671Z,1.40
2023-01-05T22:56:55.700Z,1.40
2023-01-05T22:59:58.449Z,1.53
2023-01-05T23:03:01.886Z,1.73
2023-01-05T23:06:04.760Z,1.90
2023-01-05T23:09:14.292Z,2.30
2023-01-05T23:12:22.748Z,2.63
2023-01-05T23:15:25.924Z,2.00
2023-01-05T23:18:29.608Z,1.67
2023-01-05T23:21:35.189Z,1.30
2023-01-05T23:24:45.536Z,1.23
2023-01-05T23:27:48.232Z,1.20
2023-01-05T23:30:52.713Z,1.33
2023-01-05T23:33:58.980Z,1.00
2023-01-05T23:37:02.837Z,1.03
2023-01-05T23:40:08.490Z,0.70
2023-01-05T23:43:12.530Z,3.00
2023-01-05T23:46:22.990Z,1.43
2023-01-05T23:49:25.728Z,1.03
2023-01-05T23:52:28.435Z,1.27
2023-01-05T23:55:36.193Z,1.20
2023-01-05T23:58:39.745Z,1.20
